Time;durP1;ratioP1;P1;durP2;ratioP2;P2;SDS_P1;SDS_P2;PMS_P1;PMS_P2;Temp;Humidity;BMP_temperature;BMP_pressure;BME280_temperature;BME280_humidity;BME280_pressure;Samples;Min_cycle;Max_cycle;Signal;HPM_P1;HPM_P2
2021/01/27 00:00:51;;;;;;;17.98;8.70;;;;;;;1.48;83.92;100737.38;4953978;29;20127;-83
2021/01/27 00:03:19;;;;;;;16.33;8.93;;;;;;;1.43;83.60;100724.31;4951729;29;20067;-84
2021/01/27 00:05:51;;;;;;;13.13;9.32;;;;;;;1.43;83.76;100711.28;4940775;29;20107;-83
2021/01/27 00:08:18;;;;;;;17.00;9.75;;;;;;;1.42;84.11;100704.31;4950150;29;20046;-86
2021/01/27 00:10:46;;;;;;;14.18;9.90;;;;;;;1.46;84.15;100707.78;4952026;29;20051;-84
2021/01/27 00:13:18;;;;;;;14.60;10.07;;;;;;;1.56;83.52;100710.38;4911529;29;20055;-82
2021/01/27 00:15:46;;;;;;;14.45;9.57;;;;;;;1.58;83.29;100723.38;4951913;29;20061;-83
2021/01/27 00:18:15;;;;;;;16.58;10.48;;;;;;;1.60;83.70;100714.69;4927257;29;20068;-83
2021/01/27 00:20:41;;;;;;;15.18;10.50;;;;;;;1.59;83.74;100709.47;4948585;29;20051;-83
2021/01/27 00:23:09;;;;;;;17.25;10.93;;;;;;;1.55;83.52;100708.63;4945864;29;20043;-84
2021/01/27 00:25:37;;;;;;;19.30;11.45;;;;;;;1.58;83.56;100708.59;4922057;29;20055;-82
2021/01/27 00:28:07;;;;;;;17.40;11.73;;;;;;;1.50;83.79;100705.16;4922732;29;20561;-83
2021/01/27 00:30:39;;;;;;;18.42;12.38;;;;;;;1.44;84.02;100706.94;4936554;29;20063;-84
2021/01/27 00:33:09;;;;;;;18.33;12.82;;;;;;;1.42;84.42;100708.72;4920372;29;20084;-82
2021/01/27 00:35:39;;;;;;;20.80;12.80;;;;;;;1.31;84.94;100703.50;4939815;29;20507;-82
2021/01/27 00:38:13;;;;;;;23.98;13.07;;;;;;;1.31;84.49;100709.59;4940849;29;20059;-82
2021/01/27 00:40:40;;;;;;;18.95;13.13;;;;;;;1.26;84.77;100695.69;4926282;29;20059;-84
2021/01/27 00:43:07;;;;;;;18.35;12.85;;;;;;;1.22;84.96;100706.19;4940791;29;20054;-84
2021/01/27 00:45:33;;;;;;;20.60;13.82;;;;;;;1.19;85.05;100693.13;4944077;29;20066;-83
2021/01/27 00:48:04;;;;;;;21.63;14.05;;;;;;;1.21;85.35;100699.22;4941587;29;20054;-83
2021/01/27 00:50:31;;;;;;;22.35;13.45;;;;;;;1.23;85.58;100689.66;4945056;29;20090;-83
2021/01/27 00:53:01;;;;;;;;;;;;;;;1.29;84.95;100697.44;4945145;29;20567;-83
2021/01/27 00:55:30;;;;;;;20.73;13.68;;;;;;;1.22;85.72;100694.00;4920170;29;20332;-85
2021/01/27 00:58:02;;;;;;;23.08;14.35;;;;;;;1.20;85.57;100695.75;4941934;29;20086;-83
2021/01/27 01:00:35;;;;;;;23.73;14.48;;;;;;;1.16;85.56;100694.00;4937859;29;20062;-84
2021/01/27 01:03:04;;;;;;;21.30;14.05;;;;;;;1.17;85.95;100705.31;4943856;29;20051;-83
2021/01/27 01:05:34;;;;;;;22.75;13.57;;;;;;;1.21;85.45;100707.06;4949648;29;20055;-83
2021/01/27 01:08:02;;;;;;;23.75;13.60;;;;;;;1.21;85.83;100702.69;4933057;29;20059;-83
2021/01/27 01:10:35;;;;;;;20.77;14.38;;;;;;;1.26;85.31;100705.31;4934542;29;20048;-83
2021/01/27 01:13:02;;;;;;;22.13;14.75;;;;;;;1.25;85.24;100703.56;4950615;29;20070;-83
2021/01/27 01:15:29;;;;;;;18.60;13.82;;;;;;;1.28;85.01;100700.91;4946237;29;20062;-82
2021/01/27 01:17:56;;;;;;;20.52;13.70;;;;;;;1.35;84.52;100692.19;4947371;29;20114;-83
2021/01/27 01:20:24;;;;;;;20.65;14.30;;;;;;;1.34;84.64;100680.03;4946436;29;20086;-84
2021/01/27 01:22:59;;;;;;;23.73;14.57;;;;;;;1.28;84.64;100667.88;4936561;29;20050;-83
2021/01/27 01:25:29;;;;;;;20.60;14.13;;;;;;;1.19;84.76;100661.84;4939082;29;20393;-83
2021/01/27 01:27:56;;;;;;;23.25;14.25;;;;;;;1.24;84.65;100662.69;4941731;29;20540;-81
2021/01/27 01:30:36;;;;;;;18.98;13.27;;;;;;;1.27;85.19;100660.03;4942129;29;20071;-84
2021/01/27 01:33:11;;;;;;;23.48;13.93;;;;;;;1.31;84.66;100661.78;4923329;29;20649;-83
2021/01/27 01:35:38;;;;;;;19.05;12.63;;;;;;;1.37;84.45;100661.75;4933850;29;20059;-83
2021/01/27 01:38:05;;;;;;;20.90;13.50;;;;;;;1.40;83.70;100659.13;4951033;29;20092;-83
2021/01/27 01:40:35;;;;;;;19.33;12.85;;;;;;;1.36;84.15;100660.88;4921958;29;20091;-84
2021/01/27 01:43:18;;;;;;;22.40;13.98;;;;;;;1.29;83.83;100661.78;4931335;29;20186;-84
2021/01/27 01:45:52;;;;;;;21.25;13.23;;;;;;;1.28;84.40;100661.78;4925921;29;20060;-84
2021/01/27 01:48:27;;;;;;;19.52;13.10;;;;;;;1.27;84.06;100652.22;4932814;29;20072;-84
2021/01/27 01:51:27;;;;;;;22.20;13.52;;;;;;;1.26;83.77;100666.16;4952808;29;20047;-83
2021/01/27 01:53:59;;;;;;;22.70;14.02;;;;;;;1.29;84.57;100653.09;4923394;29;20451;-85
2021/01/27 01:56:32;;;;;;;21.00;13.07;;;;;;;1.25;84.19;100643.56;4955016;29;20055;-84
2021/01/27 01:59:02;;;;;;;23.05;13.32;;;;;;;1.23;84.20;100642.69;4957512;29;20058;-84
2021/01/27 02:01:28;;;;;;;19.98;13.30;;;;;;;1.21;84.38;100654.88;4967975;29;20063;-85
2021/01/27 02:03:56;;;;;;;22.65;13.75;;;;;;;1.21;84.21;100647.91;4953329;29;20394;-83
2021/01/27 02:06:22;;;;;;;19.20;13.00;;;;;;;1.20;84.11;100647.94;4953405;29;20086;-82
2021/01/27 02:08:53;;;;;;;20.85;12.82;;;;;;;1.29;84.15;100653.09;4956112;29;20058;-84
2021/01/27 02:11:41;;;;;;;20.88;13.20;;;;;;;1.30;83.85;100655.69;4952101;29;20477;-82
2021/01/27 02:14:47;;;;;;;22.77;12.35;;;;;;;1.26;83.70;100656.56;4921338;29;20565;-83
2021/01/27 02:17:42;;;;;;;22.05;12.10;;;;;;;1.24;84.00;100652.25;4888894;29;20648;-84
2021/01/27 02:20:28;;;;;;;19.00;12.10;;;;;;;1.26;84.12;100645.31;4936621;29;20099;-84
2021/01/27 02:23:13;;;;;;;17.70;11.52;;;;;;;1.21;83.96;100634.88;4947067;29;20123;-83
2021/01/27 02:25:54;;;;;;;23.63;11.57;;;;;;;1.21;84.32;100639.22;4951527;29;20409;-84
2021/01/27 02:29:06;;;;;;;19.63;11.52;;;;;;;1.26;83.77;100643.53;4952631;28;20039;-85
2021/01/27 02:31:42;;;;;;;17.50;11.15;;;;;;;1.30;83.28;100654.81;4950964;28;20055;-84
2021/01/27 02:34:37;;;;;;;16.65;11.15;;;;;;;1.27;82.74;100644.41;4959676;28;20096;-83
2021/01/27 02:37:07;;;;;;;19.58;10.98;;;;;;;1.24;83.66;100639.22;4961256;28;20043;-85
2021/01/27 02:39:48;;;;;;;19.60;11.07;;;;;;;1.22;83.80;100640.97;4953023;29;20085;-83
2021/01/27 02:42:21;;;;;;;16.65;10.65;;;;;;;1.26;83.04;100637.47;4958165;29;20074;-83
2021/01/27 02:45:18;;;;;;;18.00;10.43;;;;;;;1.26;82.93;100643.53;4950068;29;20058;-85
2021/01/27 02:48:10;;;;;;;14.02;9.85;;;;;;;1.35;82.43;100646.09;4953625;28;20055;-84
2021/01/27 02:50:53;;;;;;;14.98;10.20;;;;;;;1.32;82.53;100635.69;4933587;29;20044;-82
2021/01/27 02:53:26;;;;;;;15.65;9.55;;;;;;;1.27;82.88;100645.25;4948852;29;20048;-83
2021/01/27 02:56:05;;;;;;;19.60;10.00;;;;;;;1.22;83.13;100643.56;4952848;29;20052;-83
2021/01/27 02:58:55;;;;;;;18.33;10.80;;;;;;;1.21;83.27;100647.06;4948098;29;20055;-84
2021/01/27 03:01:32;;;;;;;18.17;10.02;;;;;;;1.24;83.28;100632.25;4942610;29;20119;-84
2021/01/27 03:04:06;;;;;;;16.65;9.68;;;;;;;1.26;83.43;100640.09;4958858;29;20032;-84
2021/01/27 03:06:33;;;;;;;19.60;10.10;;;;;;;1.29;83.49;100638.28;4959856;28;20099;-83
2021/01/27 03:09:04;;;;;;;16.45;9.68;;;;;;;1.29;83.21;100630.47;4958708;29;20058;-82
2021/01/27 03:11:34;;;;;;;17.48;10.10;;;;;;;1.23;82.67;100619.22;4960338;29;20040;-82
2021/01/27 03:14:02;;;;;;;18.33;9.95;;;;;;;1.25;83.16;100617.47;4959170;28;20111;-83
2021/01/27 03:16:45;;;;;;;15.15;9.68;;;;;;;1.25;82.83;100612.25;4956770;29;20083;-85
2021/01/27 03:19:23;;;;;;;18.05;10.00;;;;;;;1.21;83.38;100603.56;4954325;29;20048;-83
2021/01/27 03:21:55;;;;;;;15.23;9.48;;;;;;;1.22;83.15;100594.00;4957733;29;20111;-85
2021/01/27 03:24:23;;;;;;;14.68;9.15;;;;;;;1.26;83.46;100599.19;4960819;29;20059;-82
2021/01/27 03:27:07;;;;;;;15.63;9.77;;;;;;;1.32;82.50;100587.84;4959881;28;20036;-84
2021/01/27 03:29:55;;;;;;;13.73;9.25;;;;;;;1.31;81.92;100593.94;4937192;28;20071;-83
2021/01/27 03:32:24;;;;;;;14.25;8.73;;;;;;;1.33;81.65;100576.53;4958255;28;20035;-83
2021/01/27 03:35:05;;;;;;;12.90;8.35;;;;;;;1.29;81.82;100572.22;4936519;28;20429;-83
2021/01/27 03:37:43;;;;;;;15.10;9.35;;;;;;;1.22;82.23;100570.53;4958409;28;20053;-83
2021/01/27 03:40:13;;;;;;;14.82;8.88;;;;;;;1.22;83.07;100573.16;4946535;28;20071;-81
2021/01/27 03:42:52;;;;;;;13.48;8.85;;;;;;;1.22;82.68;100583.56;4963593;28;20107;-83
2021/01/27 03:45:23;;;;;;;17.23;9.32;;;;;;;1.19;82.78;100578.38;4958409;28;20044;-81
2021/01/27 03:48:30;;;;;;;16.20;8.73;;;;;;;1.22;82.45;100578.34;4954282;29;20106;-82
2021/01/27 03:50:59;;;;;;;14.13;8.23;;;;;;;1.18;82.91;100574.03;4935028;29;20103;-83
2021/01/27 03:53:27;;;;;;;12.15;8.25;;;;;;;1.17;82.66;100567.94;4925154;29;20036;-83
2021/01/27 03:56:05;;;;;;;11.82;8.20;;;;;;;1.07;82.79;100557.59;4934211;29;20107;-83
2021/01/27 03:58:34;;;;;;;13.50;8.18;;;;;;;1.11;82.57;100561.88;4943536;29;20047;-81
2021/01/27 04:01:13;;;;;;;13.73;8.60;;;;;;;1.12;82.33;100564.50;4956701;28;20051;-81
2021/01/27 04:03:40;;;;;;;11.02;7.90;;;;;;;1.15;82.25;100555.78;4941305;29;20483;-82
2021/01/27 04:06:07;;;;;;;16.02;8.52;;;;;;;1.09;82.62;100548.03;4956958;29;20059;-80
2021/01/27 04:08:34;;;;;;;14.35;8.52;;;;;;;1.05;82.97;100541.94;4945520;29;20188;-80
2021/01/27 04:11:03;;;;;;;14.55;7.85;;;;;;;1.04;82.67;100551.50;4945907;29;20053;-82
2021/01/27 04:13:30;;;;;;;11.07;7.93;;;;;;;1.00;82.95;100536.75;4933044;29;20048;-82
2021/01/27 04:15:57;;;;;;;11.60;7.38;;;;;;;1.11;82.99;100548.84;4944963;29;20087;-81
2021/01/27 04:18:28;;;;;;;12.63;8.10;;;;;;;1.11;82.48;100541.88;4948510;29;20111;-84
2021/01/27 04:20:55;;;;;;;14.27;8.35;;;;;;;1.12;82.79;100541.00;4955780;29;20044;-83
2021/01/27 04:23:21;;;;;;;14.30;7.90;;;;;;;1.07;82.50;100532.38;4938395;29;20063;-82
2021/01/27 04:25:48;;;;;;;11.15;6.97;;;;;;;1.06;82.53;100528.03;4962345;29;20072;-82
2021/01/27 04:28:15;;;;;;;14.15;7.53;;;;;;;1.01;82.47;100525.44;4958364;29;20081;-82
2021/01/27 04:30:42;;;;;;;11.05;7.40;;;;;;;0.92;82.63;100517.69;4958256;29;20052;-84
2021/01/27 04:33:10;;;;;;;18.83;8.38;;;;;;;0.94;82.70;100513.34;4956967;29;20130;-81
2021/01/27 04:35:39;;;;;;;15.90;7.75;;;;;;;0.91;83.22;100508.13;4941323;29;20048;-82
2021/01/27 04:38:07;;;;;;;12.70;7.28;;;;;;;0.89;83.37;100509.03;4955708;29;20051;-82
2021/01/27 04:40:41;;;;;;;17.70;7.75;;;;;;;1.03;83.16;100526.31;4953108;29;20052;-81
2021/01/27 04:43:20;;;;;;;12.15;7.65;;;;;;;1.07;82.76;100515.88;4935652;29;20052;-80
2021/01/27 04:45:57;;;;;;;13.13;8.05;;;;;;;1.02;82.75;100508.94;4953472;29;20095;-81
2021/01/27 04:48:34;;;;;;;14.00;8.05;;;;;;;1.06;82.31;100515.00;4953307;29;20052;-83
2021/01/27 04:51:05;;;;;;;11.45;7.63;;;;;;;1.03;82.29;100507.19;4945880;29;20099;-81
2021/01/27 04:53:56;;;;;;;11.32;8.00;;;;;;;1.09;82.91;100501.06;4942366;29;20519;-84
2021/01/27 04:56:28;;;;;;;;;;;;;;;1.16;82.03;100501.00;4939869;29;20058;-83
2021/01/27 04:59:04;;;;;;;14.52;7.68;;;;;;;1.16;82.14;100489.72;4927450;29;19931;-83
2021/01/27 05:02:02;;;;;;;12.45;7.95;;;;;;;1.18;82.48;100482.75;4913217;29;20138;-83
2021/01/27 05:04:58;;;;;;;10.23;7.28;;;;;;;1.22;82.31;100481.84;4948259;28;20032;-84
2021/01/27 05:07:31;;;;;;;10.93;7.30;;;;;;;1.24;82.41;100480.09;4951719;29;20162;-80
2021/01/27 05:10:05;;;;;;;13.57;7.30;;;;;;;1.24;82.14;100482.72;4930062;29;20341;-82
2021/01/27 05:13:01;;;;;;;15.30;8.13;;;;;;;1.27;81.23;100477.44;4947151;29;20052;-82
2021/01/27 05:15:31;;;;;;;12.27;7.00;;;;;;;1.27;81.42;100473.09;4934770;29;20044;-85
2021/01/27 05:17:58;;;;;;;13.75;7.55;;;;;;;1.30;81.46;100472.19;4956726;29;20043;-83
2021/01/27 05:20:29;;;;;;;13.13;7.72;;;;;;;1.25;81.20;100468.78;4948753;29;20047;-84
2021/01/27 05:22:55;;;;;;;11.80;7.28;;;;;;;1.26;81.34;100462.69;4944978;29;20107;-84
2021/01/27 05:25:43;;;;;;;14.13;7.95;;;;;;;1.29;81.13;100454.81;4928401;29;20138;-83
2021/01/27 05:28:23;;;;;;;13.20;7.28;;;;;;;1.34;80.63;100458.25;4948380;29;20051;-82
2021/01/27 05:30:55;;;;;;;10.98;7.25;;;;;;;1.30;80.93;100460.03;4937948;29;20134;-83
2021/01/27 05:33:49;;;;;;;12.10;7.38;;;;;;;1.33;81.29;100461.75;4942227;29;20139;-83
2021/01/27 05:36:27;;;;;;;13.30;7.72;;;;;;;1.36;81.05;100461.72;4943467;29;20103;-82
2021/01/27 05:39:15;;;;;;;13.00;6.88;;;;;;;1.34;80.71;100460.88;4927371;29;20047;-81
2021/01/27 05:41:43;;;;;;;13.48;7.47;;;;;;;1.29;81.51;100442.63;4958876;28;20027;-83
2021/01/27 05:44:13;;;;;;;13.45;7.45;;;;;;;1.32;80.59;100449.59;4961589;28;20111;-83
2021/01/27 05:46:41;;;;;;;11.30;7.35;;;;;;;1.32;80.43;100444.38;4954265;29;20107;-83
2021/01/27 05:49:27;;;;;;;14.25;7.68;;;;;;;1.28;80.58;100435.69;4936342;29;20048;-85
2021/01/27 05:52:14;;;;;;;12.73;7.43;;;;;;;1.37;80.78;100439.97;4946455;29;20066;-84
2021/01/27 05:54:41;;;;;;;15.10;8.27;;;;;;;1.41;80.63;100444.31;4949380;29;20055;-85
2021/01/27 05:57:25;;;;;;;12.10;7.63;;;;;;;1.35;80.87;100436.50;4936858;29;20114;-84
2021/01/27 06:00:23;;;;;;;15.25;7.72;;;;;;;1.34;81.32;100456.53;4937020;29;20043;-83
2021/01/27 06:02:51;;;;;;;13.02;7.43;;;;;;;1.39;81.11;100459.09;4925071;29;20123;-84
2021/01/27 06:05:27;;;;;;;11.52;7.22;;;;;;;1.47;81.51;100454.66;4925833;29;20115;-84
2021/01/27 06:07:54;;;;;;;13.70;7.35;;;;;;;1.48;81.34;100435.53;4942549;29;20077;-83
2021/01/27 06:10:26;;;;;;;12.70;7.57;;;;;;;1.43;81.70;100426.84;4923219;29;20047;-83
2021/01/27 06:12:54;;;;;;;15.68;7.97;;;;;;;1.37;81.92;100421.72;4933390;29;20052;-82
2021/01/27 06:15:30;;;;;;;13.70;7.45;;;;;;;1.34;82.26;100414.78;4944588;29;20237;-83
2021/01/27 06:17:58;;;;;;;13.57;7.35;;;;;;;1.31;82.89;100401.75;4943232;29;20048;-84
2021/01/27 06:20:30;;;;;;;11.63;7.82;;;;;;;1.34;82.95;100413.91;4916911;29;20155;-83
2021/01/27 06:23:18;;;;;;;12.63;7.80;;;;;;;1.32;83.58;100405.22;4926558;29;20119;-82
2021/01/27 06:26:07;;;;;;;14.25;7.90;;;;;;;1.33;83.92;100393.91;4947595;29;20044;-84
2021/01/27 06:29:07;;;;;;;13.00;8.30;;;;;;;1.29;84.43;100373.94;4943134;29;20062;-82
2021/01/27 06:31:44;;;;;;;16.33;8.13;;;;;;;1.25;84.75;100386.19;4947380;29;20050;-84
2021/01/27 06:34:37;;;;;;;17.20;8.88;;;;;;;1.26;84.91;100402.69;4950535;29;20579;-83
2021/01/27 06:37:03;;;;;;;15.35;8.02;;;;;;;1.22;85.77;100403.59;4933730;29;20063;-84
2021/01/27 06:40:15;;;;;;;14.45;8.85;;;;;;;1.23;86.63;100394.91;4935546;29;20056;-84
2021/01/27 06:42:45;;;;;;;13.15;8.07;;;;;;;1.20;86.07;100387.97;4922722;29;20499;-85
2021/01/27 06:45:40;;;;;;;15.90;8.77;;;;;;;1.12;86.16;100383.66;4945678;29;20052;-83
2021/01/27 06:48:33;;;;;;;16.33;8.57;;;;;;;1.08;86.98;100392.41;4958340;29;20123;-84
2021/01/27 06:51:25;;;;;;;14.25;8.70;;;;;;;1.09;87.24;100394.16;4941493;29;20059;-82
2021/01/27 06:54:06;;;;;;;15.45;8.52;;;;;;;1.11;87.15;100393.25;4957576;29;20461;-84
2021/01/27 06:57:14;;;;;;;15.70;9.07;;;;;;;1.13;87.40;100390.63;4950218;29;20063;-84
2021/01/27 06:59:49;;;;;;;14.60;8.93;;;;;;;1.13;87.80;100382.78;4950228;28;20136;-84
2021/01/27 07:03:10;;;;;;;14.88;8.70;;;;;;;1.16;87.48;100403.63;4955711;29;20070;-84
2021/01/27 07:05:56;;;;;;;14.23;8.48;;;;;;;1.15;87.14;100405.38;4924305;29;20079;-83
2021/01/27 07:08:58;;;;;;;14.50;8.98;;;;;;;1.10;87.70;100396.75;4929597;29;20056;-84
2021/01/27 07:11:53;;;;;;;14.25;9.00;;;;;;;1.09;88.19;100404.59;4956794;29;20066;-84
2021/01/27 07:14:55;;;;;;;16.13;9.50;;;;;;;1.14;89.06;100401.03;4923998;29;20050;-82
2021/01/27 07:18:02;;;;;;;14.90;9.00;;;;;;;1.32;89.74;100403.50;4969008;29;20074;-83
2021/01/27 07:20:44;;;;;;;16.52;8.60;;;;;;;1.32;88.18;100400.00;4932362;29;20056;-84
2021/01/27 07:23:20;;;;;;;19.65;9.68;;;;;;;1.25;87.54;100390.53;4927301;29;20054;-83
2021/01/27 07:25:58;;;;;;;15.82;9.95;;;;;;;1.18;88.08;100391.44;4943638;29;20226;-83
2021/01/27 07:28:38;;;;;;;14.77;9.30;;;;;;;1.14;88.25;100393.22;4936610;29;20433;-83
2021/01/27 07:31:21;;;;;;;17.10;9.57;;;;;;;1.16;88.42;100391.47;4929438;29;20048;-83
2021/01/27 07:34:06;;;;;;;21.20;12.00;;;;;;;1.17;89.11;100390.59;4945956;29;20070;-83
2021/01/27 07:36:50;;;;;;;14.77;9.38;;;;;;;1.17;89.28;100385.38;4950144;29;20067;-84
2021/01/27 07:39:41;;;;;;;22.48;10.35;;;;;;;1.13;89.38;100385.41;4945625;29;20141;-83
2021/01/27 07:42:27;;;;;;;18.75;10.18;;;;;;;1.13;89.62;100386.28;4936383;29;20040;-84
2021/01/27 07:44:58;;;;;;;19.75;9.95;;;;;;;1.12;89.72;100379.31;4935333;29;20066;-84
2021/01/27 07:47:33;;;;;;;;;;;;;;;1.16;89.65;100381.03;4935868;29;20115;-84
2021/01/27 07:50:01;;;;;;;17.33;10.48;;;;;;;1.15;89.73;100383.66;4950675;29;19947;-81
2021/01/27 07:52:47;;;;;;;29.55;16.63;;;;;;;1.19;90.23;100385.34;4969022;29;20070;-83
2021/01/27 07:55:22;;;;;;;16.45;10.00;;;;;;;1.22;90.51;100374.91;4946272;29;20075;-83
2021/01/27 07:58:00;;;;;;;15.70;10.52;;;;;;;1.28;89.86;100380.03;4953622;29;20047;-84
2021/01/27 08:00:34;;;;;;;;;;;;;;;1.31;90.32;100404.38;4939508;29;20043;-85
2021/01/27 08:03:35;;;;;;;19.15;9.77;;;;;;;1.35;89.96;100395.63;4957620;29;19919;-84
2021/01/27 08:06:13;;;;;;;22.50;10.10;;;;;;;1.31;89.87;100374.81;4937047;29;20055;-84
2021/01/27 08:08:58;;;;;;;16.52;10.10;;;;;;;1.33;90.70;100373.06;4968691;28;20046;-84
2021/01/27 08:11:33;;;;;;;19.92;9.38;;;;;;;1.33;90.27;100373.06;4955713;28;20083;-84
2021/01/27 08:14:05;;;;;;;20.13;10.07;;;;;;;1.32;90.33;100366.97;4948195;28;20051;-84
2021/01/27 08:17:20;;;;;;;19.00;9.38;;;;;;;1.34;90.51;100378.25;4953487;29;20052;-85
2021/01/27 08:20:25;;;;;;;24.80;11.13;;;;;;;1.31;90.21;100362.63;4956645;29;20083;-82
2021/01/27 08:23:09;;;;;;;16.02;9.52;;;;;;;1.27;90.46;100344.41;4958721;29;20071;-83
2021/01/27 08:25:54;;;;;;;17.70;9.85;;;;;;;1.30;90.53;100344.38;4939516;29;20086;-82
2021/01/27 08:28:33;;;;;;;16.58;10.02;;;;;;;1.33;90.71;100341.75;4940060;29;20063;-84
2021/01/27 08:31:10;;;;;;;18.23;9.77;;;;;;;1.36;90.80;100344.31;4954822;29;20038;-84
2021/01/27 08:33:54;;;;;;;20.13;9.02;;;;;;;1.35;90.85;100337.38;4961711;28;20036;-83
2021/01/27 08:36:30;;;;;;;16.13;9.50;;;;;;;1.37;90.50;100327.78;4958538;28;20127;-86
2021/01/27 08:38:57;;;;;;;16.67;9.85;;;;;;;1.44;90.37;100326.81;4966980;28;20102;-82
2021/01/27 08:41:52;;;;;;;16.48;9.00;;;;;;;1.45;90.62;100335.53;4942099;28;20062;-85
2021/01/27 08:44:20;;;;;;;16.23;9.00;;;;;;;1.42;90.34;100325.16;4942664;29;20031;-83
2021/01/27 08:47:00;;;;;;;19.15;10.05;;;;;;;1.41;90.67;100329.50;4953895;28;20477;-82
2021/01/27 08:49:51;;;;;;;14.90;9.32;;;;;;;1.45;90.91;100331.16;4933282;29;20063;-82
2021/01/27 08:52:17;;;;;;;16.20;9.10;;;;;;;1.48;90.95;100335.50;4926976;29;20055;-83
2021/01/27 08:54:50;;;;;;;14.63;9.38;;;;;;;1.45;90.43;100325.94;4942689;29;20054;-83
2021/01/27 08:57:19;;;;;;;19.20;10.15;;;;;;;1.50;90.25;100329.38;4939500;29;20051;-82
2021/01/27 09:00:05;;;;;;;16.58;9.55;;;;;;;1.54;90.34;100327.59;4926032;29;20043;-84
2021/01/27 09:02:52;;;;;;;15.13;8.80;;;;;;;1.63;90.65;100330.09;4942894;29;20058;-81
2021/01/27 09:05:24;;;;;;;13.38;8.98;;;;;;;1.71;90.48;100325.66;4944310;29;20421;-84
2021/01/27 09:08:19;;;;;;;14.38;8.98;;;;;;;1.79;91.11;100318.59;4944501;29;20062;-82
2021/01/27 09:10:54;;;;;;;17.27;8.52;;;;;;;1.83;89.93;100317.69;4928376;29;20062;-83
2021/01/27 09:13:23;;;;;;;10.90;7.93;;;;;;;1.84;89.88;100318.53;4941139;29;20067;-83
2021/01/27 09:15:57;;;;;;;14.05;8.52;;;;;;;1.87;89.88;100328.94;4946781;29;20185;-84
2021/01/27 09:18:24;;;;;;;12.45;7.97;;;;;;;1.82;89.20;100326.38;4935733;29;20400;-82
2021/01/27 09:20:51;;;;;;;13.13;8.65;;;;;;;1.80;89.65;100316.84;4923556;29;20064;-81
2021/01/27 09:23:21;;;;;;;14.20;8.57;;;;;;;1.79;89.24;100317.72;4929786;29;20119;-82
2021/01/27 09:25:51;;;;;;;13.65;8.32;;;;;;;1.73;89.17;100311.69;4940597;29;20070;-82
2021/01/27 09:28:23;;;;;;;14.27;8.20;;;;;;;1.70;89.90;100321.31;4918660;29;20054;-83
2021/01/27 09:30:51;;;;;;;14.65;8.40;;;;;;;1.62;89.97;100305.75;4916517;29;20059;-82
2021/01/27 09:33:32;;;;;;;12.70;8.13;;;;;;;1.65;89.69;100313.53;4912904;29;20047;-83
2021/01/27 09:36:12;;;;;;;13.20;8.45;;;;;;;1.55;89.45;100301.50;4929696;29;20111;-83
2021/01/27 09:38:41;;;;;;;15.75;9.68;;;;;;;1.57;90.68;100306.69;4912493;29;20054;-84
2021/01/27 09:41:13;;;;;;;16.75;10.52;;;;;;;1.54;90.45;100299.78;4934609;29;20625;-84
2021/01/27 09:43:43;;;;;;;17.80;11.40;;;;;;;1.46;90.70;100306.81;4931218;29;20058;-84
2021/01/27 09:46:38;;;;;;;18.88;12.75;;;;;;;1.48;91.09;100310.25;4930704;29;20116;-82
2021/01/27 09:49:09;;;;;;;18.08;11.20;;;;;;;1.44;90.75;100328.56;4942826;29;20116;-83
2021/01/27 09:51:45;;;;;;;15.88;11.52;;;;;;;1.36;90.84;100323.44;4912044;29;20044;-82
2021/01/27 09:54:17;;;;;;;18.75;12.20;;;;;;;1.29;91.58;100311.34;4932003;29;20070;-84
2021/01/27 09:56:45;;;;;;;18.98;11.90;;;;;;;1.25;91.42;100309.66;4926716;29;20068;-83
2021/01/27 09:59:17;;;;;;;17.83;11.50;;;;;;;1.28;91.90;100302.66;4933298;29;20107;-83
2021/01/27 10:01:46;;;;;;;18.15;11.50;;;;;;;1.37;91.95;100301.69;4920591;29;20074;-83
2021/01/27 10:04:29;;;;;;;21.05;12.65;;;;;;;1.39;91.61;100298.19;4924584;29;20139;-83
2021/01/27 10:07:29;;;;;;;16.75;10.68;;;;;;;1.34;91.51;100305.22;4924275;29;20112;-86
2021/01/27 10:10:12;;;;;;;14.88;11.30;;;;;;;1.29;91.60;100288.72;4929551;29;20031;-84
2021/01/27 10:12:39;;;;;;;19.23;10.77;;;;;;;1.24;92.44;100289.69;4932552;29;20393;-84
2021/01/27 10:15:32;;;;;;;21.50;11.23;;;;;;;1.25;92.87;100287.06;4933052;29;20104;-83
2021/01/27 10:18:17;;;;;;;13.90;10.32;;;;;;;1.33;92.60;100285.22;4934809;29;20032;-84
2021/01/27 10:20:48;;;;;;;14.05;10.57;;;;;;;1.36;92.44;100279.97;4924555;29;20102;-86
2021/01/27 10:23:44;;;;;;;15.55;10.73;;;;;;;1.37;92.67;100286.06;4956835;28;20079;-85
2021/01/27 10:26:29;;;;;;;15.10;10.65;;;;;;;1.29;92.30;100287.88;4956646;29;20334;-84
2021/01/27 10:29:23;;;;;;;17.30;10.68;;;;;;;1.35;92.20;100303.47;4950621;29;20052;-85
2021/01/27 10:31:53;;;;;;;16.88;10.43;;;;;;;1.33;92.06;100305.22;4958621;29;20107;-84
2021/01/27 10:34:43;;;;;;;16.10;11.10;;;;;;;1.25;92.60;100309.66;4944948;28;20039;-82
2021/01/27 10:37:34;;;;;;;14.82;10.15;;;;;;;1.30;92.13;100313.06;4957067;29;20075;-82
2021/01/27 10:40:19;;;;;;;15.57;9.57;;;;;;;1.24;92.35;100311.41;4953888;29;20050;-83
2021/01/27 10:43:17;;;;;;;17.38;10.90;;;;;;;1.23;92.90;100319.25;4941522;29;20053;-82
2021/01/27 10:45:44;;;;;;;13.77;10.38;;;;;;;1.27;92.79;100316.56;4940228;29;20052;-84
2021/01/27 10:48:21;;;;;;;16.98;10.55;;;;;;;1.31;93.18;100312.19;4953784;29;20027;-83
2021/01/27 10:51:02;;;;;;;14.68;10.65;;;;;;;1.37;93.15;100302.56;4953781;29;20098;-84
2021/01/27 10:53:51;;;;;;;15.65;11.13;;;;;;;1.46;92.78;100305.94;4941142;29;20061;-84
2021/01/27 10:56:20;;;;;;;13.93;10.23;;;;;;;1.44;92.42;100290.31;4943808;29;20086;-82
2021/01/27 10:58:51;;;;;;;16.52;10.68;;;;;;;1.44;91.92;100284.22;4945164;29;20056;-83
2021/01/27 11:01:19;;;;;;;16.33;10.70;;;;;;;1.45;91.99;100268.53;4962329;29;20039;-83
2021/01/27 11:03:47;;;;;;;15.85;10.75;;;;;;;1.44;91.88;100269.44;4898954;29;20043;-83
2021/01/27 11:06:40;;;;;;;14.05;11.35;;;;;;;1.51;91.89;100258.03;4949065;29;20050;-83
2021/01/27 11:09:12;;;;;;;20.92;14.48;;;;;;;1.49;92.13;100253.72;4954759;29;20055;-84
2021/01/27 11:11:40;;;;;;;20.65;14.43;;;;;;;1.67;91.98;100266.53;4929408;29;20051;-85
2021/01/27 11:14:08;;;;;;;18.50;12.00;;;;;;;1.71;91.38;100256.06;4919749;29;20393;-85
2021/01/27 11:16:50;;;;;;;19.50;12.65;;;;;;;1.80;91.22;100259.41;4932567;29;20111;-87
2021/01/27 11:19:17;;;;;;;16.20;11.30;;;;;;;1.77;90.68;100258.56;4938819;29;20146;-84
2021/01/27 11:21:43;;;;;;;20.05;12.77;;;;;;;1.69;91.62;100262.19;4953379;29;20132;-85
2021/01/27 11:24:10;;;;;;;17.77;12.75;;;;;;;1.60;91.21;100263.13;4957396;29;20040;-84
2021/01/27 11:26:39;;;;;;;18.38;11.38;;;;;;;1.63;91.89;100257.03;4954345;29;20066;-85
2021/01/27 11:29:29;;;;;;;15.57;11.27;;;;;;;1.58;91.05;100230.97;4937698;29;20083;-84
2021/01/27 11:31:57;;;;;;;16.63;11.90;;;;;;;1.60;91.63;100239.66;4932321;29;20062;-85
2021/01/27 11:34:23;;;;;;;15.15;11.93;;;;;;;1.60;91.61;100229.22;4952206;29;20110;-83
2021/01/27 11:36:50;;;;;;;17.92;12.68;;;;;;;1.57;91.91;100223.19;4935649;29;20055;-83
2021/01/27 11:39:17;;;;;;;20.90;12.48;;;;;;;1.58;91.76;100212.69;4945632;29;20396;-82
2021/01/27 11:41:44;;;;;;;17.60;12.27;;;;;;;1.63;91.97;100208.28;4941256;29;20617;-82
2021/01/27 11:44:10;;;;;;;16.48;12.25;;;;;;;1.60;91.60;100200.50;4927196;29;20050;-81
2021/01/27 11:46:37;;;;;;;17.15;12.55;;;;;;;1.59;91.70;100205.75;4943536;29;20047;-82
2021/01/27 11:49:06;;;;;;;16.95;11.98;;;;;;;1.54;91.51;100197.13;4942692;29;20047;-82
2021/01/27 11:51:33;;;;;;;17.65;12.30;;;;;;;1.48;91.43;100195.44;4947422;29;20385;-80
2021/01/27 11:54:03;;;;;;;18.23;13.30;;;;;;;1.48;91.27;100194.59;4943597;29;20047;-82
2021/01/27 11:56:29;;;;;;;18.15;12.55;;;;;;;1.48;92.42;100190.22;4945870;29;20471;-83
2021/01/27 11:58:56;;;;;;;21.38;13.82;;;;;;;1.45;92.04;100198.09;4942766;29;20054;-86
2021/01/27 12:01:27;;;;;;;17.50;12.77;;;;;;;1.49;91.84;100202.41;4942275;29;20062;-85
2021/01/27 12:03:56;;;;;;;18.45;13.40;;;;;;;1.48;92.34;100194.59;4937548;29;20051;-81
2021/01/27 12:06:22;;;;;;;18.48;13.00;;;;;;;1.46;92.13;100197.22;4941323;29;20051;-85